sensor_id;sensor_type;location;lat;lon;timestamp;pressure;altitude;pressure_sealevel;temperature;humidity
29169;BME280;16219;42.864;23.360;2022-07-18T00:12:46;96550.09;;;14.82;100.00
29169;BME280;16219;42.864;23.360;2022-07-18T00:39:09;96556.59;;;14.38;100.00
29169;BME280;16219;42.864;23.360;2022-07-18T00:47:03;96468.38;;;13.68;100.00
29169;BME280;16219;42.864;23.360;2022-07-18T02:25:16;96591.19;;;12.97;100.00
29169;BME280;16219;42.864;23.360;2022-07-18T02:32:43;96515.13;;;12.49;100.00
29169;BME280;16219;42.864;23.360;2022-07-18T02:48:48;96553.69;;;12.42;100.00
29169;BME280;16219;42.864;23.360;2022-07-18T02:52:18;96606.31;;;12.66;100.00
29169;BME280;16219;42.864;23.360;2022-07-18T02:59:18;96517.75;;;11.96;100.00
29169;BME280;16219;42.864;23.360;2022-07-18T03:02:28;96545.78;;;12.19;100.00
29169;BME280;16219;42.864;23.360;2022-07-18T04:13:27;96610.97;;;12.69;100.00
29169;BME280;16219;42.864;23.360;2022-07-18T04:15:54;96635.41;;;12.88;100.00
29169;BME280;16219;42.864;23.360;2022-07-18T04:19:06;96635.22;;;13.56;100.00
29169;BME280;16219;42.864;23.360;2022-07-18T04:23:26;96558.56;;;15.43;100.00
29169;BME280;16219;42.864;23.360;2022-07-18T04:26:33;96543.19;;;17.52;100.00
29169;BME280;16219;42.864;23.360;2022-07-18T04:36:26;96576.88;;;21.22;63.28
29169;BME280;16219;42.864;23.360;2022-07-18T04:38:54;96573.19;;;21.87;55.45
29169;BME280;16219;42.864;23.360;2022-07-18T04:42:59;96595.94;;;23.38;52.89
29169;BME280;16219;42.864;23.360;2022-07-18T04:53:54;96588.19;;;25.51;44.01
29169;BME280;16219;42.864;23.360;2022-07-18T05:39:56;96540.81;;;19.38;62.95
29169;BME280;16219;42.864;23.360;2022-07-18T05:47:00;96613.72;;;19.51;69.02
29169;BME280;16219;42.864;23.360;2022-07-18T05:50:46;96617.50;;;19.49;74.24
29169;BME280;16219;42.864;23.360;2022-07-18T05:54:28;96607.34;;;19.71;76.06
29169;BME280;16219;42.864;23.360;2022-07-18T07:28:25;96498.25;;;24.36;38.27
29169;BME280;16219;42.864;23.360;2022-07-18T07:30:52;96465.88;;;24.22;37.28
29169;BME280;16219;42.864;23.360;2022-07-18T08:08:42;96449.94;;;25.77;38.90
29169;BME280;16219;42.864;23.360;2022-07-18T08:49:21;96524.56;;;26.37;35.43
29169;BME280;16219;42.864;23.360;2022-07-18T08:52:19;96429.00;;;25.92;35.86
29169;BME280;16219;42.864;23.360;2022-07-18T09:24:16;96441.88;;;26.33;38.12
29169;BME280;16219;42.864;23.360;2022-07-18T09:38:01;96517.84;;;27.19;36.71
29169;BME280;16219;42.864;23.360;2022-07-18T09:50:52;96432.09;;;26.98;36.76
29169;BME280;16219;42.864;23.360;2022-07-18T09:53:21;96434.47;;;26.92;38.50
29169;BME280;16219;42.864;23.360;2022-07-18T09:55:53;96510.38;;;27.64;39.25
29169;BME280;16219;42.864;23.360;2022-07-18T09:58:51;96510.34;;;27.68;37.88
29169;BME280;16219;42.864;23.360;2022-07-18T10:01:18;96494.38;;;27.43;37.90
29169;BME280;16219;42.864;23.360;2022-07-18T10:03:46;96491.16;;;27.52;39.13
29169;BME280;16219;42.864;23.360;2022-07-18T10:09:31;96505.72;;;27.65;38.60
29169;BME280;16219;42.864;23.360;2022-07-18T10:17:22;96441.75;;;27.40;40.95
29169;BME280;16219;42.864;23.360;2022-07-18T10:19:49;96478.50;;;27.79;38.67
29169;BME280;16219;42.864;23.360;2022-07-18T10:22:17;96470.59;;;27.92;38.14
29169;BME280;16219;42.864;23.360;2022-07-18T10:28:16;96482.75;;;28.11;39.23
29169;BME280;16219;42.864;23.360;2022-07-18T10:33:54;96470.81;;;27.74;38.99
29169;BME280;16219;42.864;23.360;2022-07-18T10:36:23;96475.78;;;27.79;39.31
29169;BME280;16219;42.864;23.360;2022-07-18T10:42:16;96473.66;;;27.22;41.48
29169;BME280;16219;42.864;23.360;2022-07-18T10:44:46;96467.72;;;26.93;42.15
29169;BME280;16219;42.864;23.360;2022-07-18T10:47:18;96475.06;;;27.37;41.51
29169;BME280;16219;42.864;23.360;2022-07-18T10:50:22;96469.81;;;27.23;42.30
29169;BME280;16219;42.864;23.360;2022-07-18T10:56:06;96468.75;;;27.10;42.66
29169;BME280;16219;42.864;23.360;2022-07-18T10:58:38;96473.81;;;27.04;42.66
29169;BME280;16219;42.864;23.360;2022-07-18T11:10:12;96447.97;;;26.96;44.26
29169;BME280;16219;42.864;23.360;2022-07-18T11:12:39;96390.59;;;26.67;43.76
29169;BME280;16219;42.864;23.360;2022-07-18T11:15:11;96399.13;;;27.10;41.71
29169;BME280;16219;42.864;23.360;2022-07-18T11:20:51;96405.28;;;27.49;40.96
29169;BME280;16219;42.864;23.360;2022-07-18T11:26:14;96435.84;;;27.49;41.69
29169;BME280;16219;42.864;23.360;2022-07-18T11:28:42;96435.69;;;27.29;42.42
29169;BME280;16219;42.864;23.360;2022-07-18T11:31:10;96457.13;;;27.51;42.51
29169;BME280;16219;42.864;23.360;2022-07-18T11:36:31;96411.56;;;27.73;42.36
29169;BME280;16219;42.864;23.360;2022-07-18T11:39:00;96424.53;;;28.15;42.00
29169;BME280;16219;42.864;23.360;2022-07-18T11:41:32;96414.66;;;28.29;40.72
29169;BME280;16219;42.864;23.360;2022-07-18T11:44:00;96420.47;;;28.04;40.51
29169;BME280;16219;42.864;23.360;2022-07-18T11:46:30;96435.97;;;27.69;41.56
29169;BME280;16219;42.864;23.360;2022-07-18T11:49:00;96447.53;;;27.77;43.63
29169;BME280;16219;42.864;23.360;2022-07-18T11:51:34;96426.69;;;28.01;41.84
29169;BME280;16219;42.864;23.360;2022-07-18T11:54:02;96381.41;;;27.98;41.32
29169;BME280;16219;42.864;23.360;2022-07-18T11:56:47;96411.50;;;28.34;43.64
29169;BME280;16219;42.864;23.360;2022-07-18T11:59:16;96433.94;;;28.38;42.52
29169;BME280;16219;42.864;23.360;2022-07-18T12:10:15;96434.38;;;27.03;44.25
29169;BME280;16219;42.864;23.360;2022-07-18T12:12:46;96359.47;;;26.89;42.41
29169;BME280;16219;42.864;23.360;2022-07-18T12:15:14;96370.56;;;27.36;41.86
29169;BME280;16219;42.864;23.360;2022-07-18T12:17:46;96370.50;;;27.74;42.95
29169;BME280;16219;42.864;23.360;2022-07-18T12:20:15;96430.09;;;28.35;40.33
29169;BME280;16219;42.864;23.360;2022-07-18T12:23:05;96423.28;;;28.51;40.90
29169;BME280;16219;42.864;23.360;2022-07-18T12:25:40;96420.91;;;28.76;38.60
29169;BME280;16219;42.864;23.360;2022-07-18T12:28:16;96422.06;;;28.75;39.66
29169;BME280;16219;42.864;23.360;2022-07-18T12:30:44;96427.88;;;29.01;39.82
29169;BME280;16219;42.864;23.360;2022-07-18T12:33:12;96424.38;;;29.24;38.64
29169;BME280;16219;42.864;23.360;2022-07-18T12:35:40;96418.97;;;28.77;41.47
29169;BME280;16219;42.864;23.360;2022-07-18T12:38:10;96402.13;;;28.62;40.07
29169;BME280;16219;42.864;23.360;2022-07-18T12:40:40;96412.69;;;28.80;38.26
29169;BME280;16219;42.864;23.360;2022-07-18T12:43:12;96419.25;;;28.82;39.18
29169;BME280;16219;42.864;23.360;2022-07-18T12:45:46;96394.13;;;28.55;40.41
29169;BME280;16219;42.864;23.360;2022-07-18T12:48:13;96430.19;;;29.02;41.10
29169;BME280;16219;42.864;23.360;2022-07-18T12:50:42;96415.53;;;28.96;39.70
29169;BME280;16219;42.864;23.360;2022-07-18T12:53:13;96417.25;;;28.86;38.22
29169;BME280;16219;42.864;23.360;2022-07-18T12:55:45;96401.72;;;28.40;41.54
29169;BME280;16219;42.864;23.360;2022-07-18T12:58:13;96407.41;;;28.73;38.92
29169;BME280;16219;42.864;23.360;2022-07-18T13:00:41;96410.66;;;28.64;38.97
29169;BME280;16219;42.864;23.360;2022-07-18T13:03:11;96404.97;;;28.78;39.59
29169;BME280;16219;42.864;23.360;2022-07-18T13:05:40;96424.91;;;28.92;38.81
29169;BME280;16219;42.864;23.360;2022-07-18T13:08:07;96418.31;;;28.69;38.78
29169;BME280;16219;42.864;23.360;2022-07-18T13:10:38;96414.06;;;28.68;37.84
29169;BME280;16219;42.864;23.360;2022-07-18T13:13:07;96396.00;;;28.58;39.43
29169;BME280;16219;42.864;23.360;2022-07-18T13:15:36;96387.47;;;28.79;38.26
29169;BME280;16219;42.864;23.360;2022-07-18T13:18:04;96408.97;;;28.94;38.00
29169;BME280;16219;42.864;23.360;2022-07-18T13:20:33;96399.88;;;29.04;38.94
29169;BME280;16219;42.864;23.360;2022-07-18T13:23:01;96392.91;;;29.03;38.00
29169;BME280;16219;42.864;23.360;2022-07-18T13:25:30;96400.03;;;29.36;40.17
29169;BME280;16219;42.864;23.360;2022-07-18T13:27:58;96379.44;;;29.55;37.47
29169;BME280;16219;42.864;23.360;2022-07-18T13:30:26;96396.69;;;29.49;35.50
29169;BME280;16219;42.864;23.360;2022-07-18T13:32:53;96401.50;;;29.41;37.89
29169;BME280;16219;42.864;23.360;2022-07-18T13:35:22;96410.41;;;29.22;37.73
29169;BME280;16219;42.864;23.360;2022-07-18T13:37:51;96377.88;;;28.98;37.86
29169;BME280;16219;42.864;23.360;2022-07-18T13:40:18;96381.94;;;29.10;36.79
29169;BME280;16219;42.864;23.360;2022-07-18T13:42:45;96380.81;;;29.27;36.93
29169;BME280;16219;42.864;23.360;2022-07-18T13:45:13;96380.94;;;29.20;37.61
29169;BME280;16219;42.864;23.360;2022-07-18T13:47:41;96392.03;;;29.29;37.36
29169;BME280;16219;42.864;23.360;2022-07-18T13:50:09;96355.66;;;29.23;37.68
29169;BME280;16219;42.864;23.360;2022-07-18T13:52:36;96376.84;;;29.12;36.79
29169;BME280;16219;42.864;23.360;2022-07-18T13:55:07;96382.94;;;28.96;37.45
29169;BME280;16219;42.864;23.360;2022-07-18T13:57:34;96398.91;;;29.14;39.16
29169;BME280;16219;42.864;23.360;2022-07-18T14:00:04;96385.81;;;29.09;37.03
29169;BME280;16219;42.864;23.360;2022-07-18T14:02:31;96378.16;;;29.04;36.81
29169;BME280;16219;42.864;23.360;2022-07-18T14:04:59;96371.59;;;29.21;35.94
29169;BME280;16219;42.864;23.360;2022-07-18T14:07:27;96383.00;;;29.52;35.71
29169;BME280;16219;42.864;23.360;2022-07-18T14:09:54;96389.31;;;29.49;35.78
29169;BME280;16219;42.864;23.360;2022-07-18T14:12:23;96381.34;;;29.38;35.89
29169;BME280;16219;42.864;23.360;2022-07-18T14:14:50;96364.56;;;29.24;37.01
29169;BME280;16219;42.864;23.360;2022-07-18T14:17:18;96374.88;;;29.32;36.25
29169;BME280;16219;42.864;23.360;2022-07-18T14:19:45;96359.97;;;29.21;36.34
29169;BME280;16219;42.864;23.360;2022-07-18T14:22:13;96353.13;;;29.12;37.86
29169;BME280;16219;42.864;23.360;2022-07-18T14:24:40;96373.34;;;29.31;36.75
29169;BME280;16219;42.864;23.360;2022-07-18T14:27:07;96341.78;;;28.98;36.86
29169;BME280;16219;42.864;23.360;2022-07-18T14:29:36;96378.38;;;29.33;36.85
29169;BME280;16219;42.864;23.360;2022-07-18T14:32:04;96380.94;;;29.40;36.04
29169;BME280;16219;42.864;23.360;2022-07-18T14:34:31;96369.94;;;29.27;35.48
29169;BME280;16219;42.864;23.360;2022-07-18T14:36:59;96369.03;;;29.34;35.88
29169;BME280;16219;42.864;23.360;2022-07-18T14:39:27;96367.13;;;29.31;35.20
29169;BME280;16219;42.864;23.360;2022-07-18T14:41:54;96367.44;;;29.17;35.23
29169;BME280;16219;42.864;23.360;2022-07-18T14:44:23;96346.31;;;29.24;35.94
29169;BME280;16219;42.864;23.360;2022-07-18T14:46:54;96366.78;;;29.29;35.34
29169;BME280;16219;42.864;23.360;2022-07-18T14:49:21;96344.16;;;29.35;35.02
29169;BME280;16219;42.864;23.360;2022-07-18T14:51:48;96378.59;;;29.62;34.73
29169;BME280;16219;42.864;23.360;2022-07-18T14:54:16;96365.09;;;29.55;34.53
29169;BME280;16219;42.864;23.360;2022-07-18T14:56:43;96381.63;;;29.64;34.82
29169;BME280;16219;42.864;23.360;2022-07-18T14:59:10;96354.53;;;29.41;36.94
29169;BME280;16219;42.864;23.360;2022-07-18T15:01:38;96382.31;;;29.68;35.85
29169;BME280;16219;42.864;23.360;2022-07-18T15:04:07;96339.63;;;29.29;35.78
29169;BME280;16219;42.864;23.360;2022-07-18T15:06:34;96375.22;;;29.34;37.10
29169;BME280;16219;42.864;23.360;2022-07-18T15:09:02;96376.59;;;29.43;36.87
29169;BME280;16219;42.864;23.360;2022-07-18T15:11:55;96371.47;;;29.48;35.21
29169;BME280;16219;42.864;23.360;2022-07-18T15:14:22;96380.59;;;29.38;35.81
29169;BME280;16219;42.864;23.360;2022-07-18T15:16:50;96382.47;;;29.21;35.53
29169;BME280;16219;42.864;23.360;2022-07-18T15:19:19;96331.69;;;28.98;36.95
29169;BME280;16219;42.864;23.360;2022-07-18T15:21:46;96368.03;;;29.04;36.45
29169;BME280;16219;42.864;23.360;2022-07-18T15:24:13;96366.34;;;28.90;35.45
29169;BME280;16219;42.864;23.360;2022-07-18T15:26:40;96360.75;;;28.78;36.76
29169;BME280;16219;42.864;23.360;2022-07-18T15:29:07;96357.50;;;28.86;36.14
29169;BME280;16219;42.864;23.360;2022-07-18T15:31:35;96353.03;;;28.76;35.72
29169;BME280;16219;42.864;23.360;2022-07-18T15:34:03;96356.19;;;28.71;37.09
29169;BME280;16219;42.864;23.360;2022-07-18T15:36:32;96366.66;;;28.73;37.26
29169;BME280;16219;42.864;23.360;2022-07-18T15:38:59;96364.44;;;28.87;37.32
29169;BME280;16219;42.864;23.360;2022-07-18T15:41:26;96364.00;;;28.69;37.69
29169;BME280;16219;42.864;23.360;2022-07-18T15:43:54;96349.34;;;28.63;37.57
29169;BME280;16219;42.864;23.360;2022-07-18T15:46:21;96324.28;;;28.32;38.04
29169;BME280;16219;42.864;23.360;2022-07-18T15:48:48;96362.84;;;28.47;37.52
29169;BME280;16219;42.864;23.360;2022-07-18T15:51:16;96345.22;;;28.31;37.06
29169;BME280;16219;42.864;23.360;2022-07-18T15:53:45;96364.06;;;28.65;37.97
29169;BME280;16219;42.864;23.360;2022-07-18T15:56:12;96353.63;;;28.40;36.63
29169;BME280;16219;42.864;23.360;2022-07-18T15:58:39;96328.25;;;28.27;37.45
29169;BME280;16219;42.864;23.360;2022-07-18T16:01:06;96346.47;;;28.27;36.87
29169;BME280;16219;42.864;23.360;2022-07-18T16:03:33;96338.47;;;28.16;37.00
29169;BME280;16219;42.864;23.360;2022-07-18T16:06:01;96370.19;;;28.23;36.78
29169;BME280;16219;42.864;23.360;2022-07-18T16:08:28;96334.19;;;27.95;38.71
29169;BME280;16219;42.864;23.360;2022-07-18T16:10:57;96364.91;;;28.12;38.05
29169;BME280;16219;42.864;23.360;2022-07-18T16:13:24;96341.19;;;27.93;38.46
29169;BME280;16219;42.864;23.360;2022-07-18T16:15:51;96344.97;;;27.99;39.58
29169;BME280;16219;42.864;23.360;2022-07-18T16:18:18;96340.47;;;27.88;38.15
29169;BME280;16219;42.864;23.360;2022-07-18T16:20:45;96355.72;;;28.06;38.53
29169;BME280;16219;42.864;23.360;2022-07-18T16:23:13;96340.06;;;27.90;37.43
29169;BME280;16219;42.864;23.360;2022-07-18T16:25:40;96344.75;;;27.86;37.49
29169;BME280;16219;42.864;23.360;2022-07-18T16:31:08;96332.91;;;27.46;38.26
29169;BME280;16219;42.864;23.360;2022-07-18T16:44:50;96368.00;;;26.84;40.54
29169;BME280;16219;42.864;23.360;2022-07-18T16:50:47;96346.50;;;26.70;40.54
29169;BME280;16219;42.864;23.360;2022-07-18T16:53:18;96367.34;;;26.77;42.10
29169;BME280;16219;42.864;23.360;2022-07-18T16:56:16;96376.69;;;26.69;40.44
29169;BME280;16219;42.864;23.360;2022-07-18T16:59:49;96315.78;;;26.01;41.61
29169;BME280;16219;42.864;23.360;2022-07-18T17:12:45;96349.25;;;25.55;45.04
29169;BME280;16219;42.864;23.360;2022-07-18T17:15:13;96363.50;;;25.63;44.99
29169;BME280;16219;42.864;23.360;2022-07-18T17:21:02;96341.31;;;25.16;46.95
29169;BME280;16219;42.864;23.360;2022-07-18T17:48:52;96342.97;;;24.31;54.42
29169;BME280;16219;42.864;23.360;2022-07-18T17:51:20;96316.41;;;24.15;53.87
29169;BME280;16219;42.864;23.360;2022-07-18T18:13:46;96359.44;;;23.62;61.26
29169;BME280;16219;42.864;23.360;2022-07-18T18:28:39;96366.41;;;22.86;74.37
29169;BME280;16219;42.864;23.360;2022-07-18T18:31:08;96391.50;;;23.05;75.02
29169;BME280;16219;42.864;23.360;2022-07-18T18:36:43;96399.31;;;22.65;81.30
29169;BME280;16219;42.864;23.360;2022-07-18T18:39:25;96330.31;;;21.91;86.51
29169;BME280;16219;42.864;23.360;2022-07-18T18:41:53;96433.88;;;22.63;86.01
29169;BME280;16219;42.864;23.360;2022-07-18T18:44:21;96331.13;;;21.92;85.92
29169;BME280;16219;42.864;23.360;2022-07-18T19:01:28;96364.84;;;21.52;88.13
29169;BME280;16219;42.864;23.360;2022-07-18T19:07:43;96382.56;;;21.27;92.14
29169;BME280;16219;42.864;23.360;2022-07-18T19:16:11;96427.00;;;21.24;92.96
29169;BME280;16219;42.864;23.360;2022-07-18T19:18:41;96442.88;;;21.36;96.09
29169;BME280;16219;42.864;23.360;2022-07-18T19:29:51;96477.47;;;21.15;100.00
29169;BME280;16219;42.864;23.360;2022-07-18T19:36:06;96422.09;;;20.50;100.00
29169;BME280;16219;42.864;23.360;2022-07-18T19:38:34;96459.13;;;20.67;100.00
29169;BME280;16219;42.864;23.360;2022-07-18T19:42:02;96480.56;;;20.67;100.00
29169;BME280;16219;42.864;23.360;2022-07-18T19:45:30;96473.22;;;20.61;100.00
29169;BME280;16219;42.864;23.360;2022-07-18T20:14:38;96490.22;;;19.68;100.00
29169;BME280;16219;42.864;23.360;2022-07-18T20:22:13;96478.28;;;19.46;100.00
29169;BME280;16219;42.864;23.360;2022-07-18T20:26:20;96460.06;;;19.16;100.00
29169;BME280;16219;42.864;23.360;2022-07-18T21:40:47;96440.72;;;17.40;100.00
29169;BME280;16219;42.864;23.360;2022-07-18T21:43:14;96532.34;;;18.13;100.00
29169;BME280;16219;42.864;23.360;2022-07-18T21:46:39;96465.22;;;17.58;100.00
29169;BME280;16219;42.864;23.360;2022-07-18T21:50:54;96487.75;;;17.73;100.00
29169;BME280;16219;42.864;23.360;2022-07-18T22:41:14;96480.53;;;17.33;100.00
29169;BME280;16219;42.864;23.360;2022-07-18T22:44:49;96495.28;;;17.43;100.00
29169;BME280;16219;42.864;23.360;2022-07-18T23:06:30;96462.44;;;17.14;100.00
29169;BME280;16219;42.864;23.360;2022-07-18T23:09:40;96537.13;;;17.67;100.00
29169;BME280;16219;42.864;23.360;2022-07-18T23:13:27;96447.94;;;16.87;100.00
